sensor_id;sensor_type;location;lat;lon;timestamp;P1;durP1;ratioP1;P2;durP2;ratioP2
32894;SDS011;19251;49.484;8.260;2022-07-23T00:04:56;11.40;;;6.00;;
32894;SDS011;19251;49.484;8.260;2022-07-23T00:09:58;5.07;;;4.60;;
32894;SDS011;19251;49.484;8.260;2022-07-23T00:15:01;5.60;;;4.37;;
32894;SDS011;19251;49.484;8.260;2022-07-23T00:20:06;6.93;;;5.75;;
32894;SDS011;19251;49.484;8.260;2022-07-23T00:25:09;11.75;;;6.50;;
32894;SDS011;19251;49.484;8.260;2022-07-23T00:30:29;7.70;;;6.05;;
32894;SDS011;19251;49.484;8.260;2022-07-23T00:35:34;7.03;;;5.55;;
32894;SDS011;19251;49.484;8.260;2022-07-23T00:40:42;6.35;;;5.00;;
32894;SDS011;19251;49.484;8.260;2022-07-23T00:45:44;7.10;;;5.80;;
32894;SDS011;19251;49.484;8.260;2022-07-23T00:50:47;8.90;;;5.90;;
32894;SDS011;19251;49.484;8.260;2022-07-23T00:55:49;10.25;;;5.70;;
32894;SDS011;19251;49.484;8.260;2022-07-23T01:05:54;8.18;;;5.80;;
32894;SDS011;19251;49.484;8.260;2022-07-23T01:10:56;9.90;;;6.87;;
32894;SDS011;19251;49.484;8.260;2022-07-23T01:16:01;9.25;;;6.53;;
32894;SDS011;19251;49.484;8.260;2022-07-23T01:21:04;6.65;;;5.37;;
32894;SDS011;19251;49.484;8.260;2022-07-23T01:26:11;7.43;;;6.60;;
32894;SDS011;19251;49.484;8.260;2022-07-23T01:31:15;6.60;;;5.97;;
32894;SDS011;19251;49.484;8.260;2022-07-23T01:36:19;9.13;;;6.12;;
32894;SDS011;19251;49.484;8.260;2022-07-23T01:46:25;6.50;;;5.62;;
32894;SDS011;19251;49.484;8.260;2022-07-23T01:51:27;8.00;;;5.90;;
32894;SDS011;19251;49.484;8.260;2022-07-23T01:56:30;7.62;;;5.78;;
32894;SDS011;19251;49.484;8.260;2022-07-23T02:01:33;8.82;;;6.32;;
32894;SDS011;19251;49.484;8.260;2022-07-23T02:06:37;8.75;;;6.47;;
32894;SDS011;19251;49.484;8.260;2022-07-23T02:11:40;8.02;;;6.22;;
32894;SDS011;19251;49.484;8.260;2022-07-23T02:16:42;10.60;;;6.35;;
32894;SDS011;19251;49.484;8.260;2022-07-23T02:26:47;6.85;;;5.55;;
32894;SDS011;19251;49.484;8.260;2022-07-23T02:31:49;8.98;;;6.18;;
32894;SDS011;19251;49.484;8.260;2022-07-23T02:36:52;10.18;;;5.90;;
32894;SDS011;19251;49.484;8.260;2022-07-23T02:41:55;7.03;;;5.82;;
32894;SDS011;19251;49.484;8.260;2022-07-23T02:46:58;6.55;;;5.75;;
32894;SDS011;19251;49.484;8.260;2022-07-23T02:52:01;6.32;;;5.72;;
32894;SDS011;19251;49.484;8.260;2022-07-23T02:57:04;9.68;;;7.25;;
32894;SDS011;19251;49.484;8.260;2022-07-23T03:02:06;13.02;;;6.82;;
32894;SDS011;19251;49.484;8.260;2022-07-23T03:07:09;9.52;;;6.32;;
32894;SDS011;19251;49.484;8.260;2022-07-23T03:12:11;7.10;;;5.62;;
32894;SDS011;19251;49.484;8.260;2022-07-23T03:17:15;8.05;;;6.28;;
32894;SDS011;19251;49.484;8.260;2022-07-23T03:22:18;9.25;;;6.72;;
32894;SDS011;19251;49.484;8.260;2022-07-23T03:27:22;10.40;;;7.68;;
32894;SDS011;19251;49.484;8.260;2022-07-23T03:32:26;7.03;;;6.12;;
32894;SDS011;19251;49.484;8.260;2022-07-23T03:37:29;10.10;;;7.57;;
32894;SDS011;19251;49.484;8.260;2022-07-23T03:42:32;11.88;;;7.28;;
32894;SDS011;19251;49.484;8.260;2022-07-23T03:47:36;7.10;;;6.28;;
32894;SDS011;19251;49.484;8.260;2022-07-23T03:52:40;9.00;;;6.68;;
32894;SDS011;19251;49.484;8.260;2022-07-23T03:57:43;7.62;;;6.87;;
32894;SDS011;19251;49.484;8.260;2022-07-23T04:02:45;10.82;;;6.72;;
32894;SDS011;19251;49.484;8.260;2022-07-23T04:07:48;8.60;;;6.72;;
32894;SDS011;19251;49.484;8.260;2022-07-23T04:12:52;12.48;;;7.30;;
32894;SDS011;19251;49.484;8.260;2022-07-23T04:17:54;7.72;;;6.90;;
32894;SDS011;19251;49.484;8.260;2022-07-23T04:22:59;8.73;;;6.85;;
32894;SDS011;19251;49.484;8.260;2022-07-23T04:28:02;10.65;;;7.05;;
32894;SDS011;19251;49.484;8.260;2022-07-23T04:33:05;10.07;;;7.43;;
32894;SDS011;19251;49.484;8.260;2022-07-23T04:38:10;11.85;;;7.22;;
32894;SDS011;19251;49.484;8.260;2022-07-23T04:48:15;7.55;;;6.70;;
32894;SDS011;19251;49.484;8.260;2022-07-23T04:53:18;15.25;;;8.45;;
32894;SDS011;19251;49.484;8.260;2022-07-23T04:58:22;9.05;;;7.53;;
32894;SDS011;19251;49.484;8.260;2022-07-23T05:03:24;9.02;;;7.25;;
32894;SDS011;19251;49.484;8.260;2022-07-23T05:08:27;13.57;;;7.25;;
32894;SDS011;19251;49.484;8.260;2022-07-23T05:13:30;7.65;;;6.60;;
32894;SDS011;19251;49.484;8.260;2022-07-23T05:18:32;8.40;;;7.10;;
32894;SDS011;19251;49.484;8.260;2022-07-23T05:23:35;8.85;;;7.72;;
32894;SDS011;19251;49.484;8.260;2022-07-23T05:28:38;9.77;;;7.32;;
32894;SDS011;19251;49.484;8.260;2022-07-23T05:33:42;11.00;;;7.15;;
32894;SDS011;19251;49.484;8.260;2022-07-23T05:38:44;8.05;;;7.10;;
32894;SDS011;19251;49.484;8.260;2022-07-23T05:43:47;9.40;;;8.07;;
32894;SDS011;19251;49.484;8.260;2022-07-23T05:53:56;7.20;;;6.37;;
32894;SDS011;19251;49.484;8.260;2022-07-23T05:59:02;9.55;;;7.28;;
32894;SDS011;19251;49.484;8.260;2022-07-23T06:04:05;8.95;;;7.32;;
32894;SDS011;19251;49.484;8.260;2022-07-23T06:09:08;9.27;;;7.60;;
32894;SDS011;19251;49.484;8.260;2022-07-23T06:14:12;12.07;;;7.60;;
32894;SDS011;19251;49.484;8.260;2022-07-23T06:19:16;11.00;;;7.93;;
32894;SDS011;19251;49.484;8.260;2022-07-23T06:24:18;9.40;;;7.53;;
32894;SDS011;19251;49.484;8.260;2022-07-23T06:29:23;15.00;;;9.38;;
32894;SDS011;19251;49.484;8.260;2022-07-23T06:34:25;10.50;;;9.40;;
32894;SDS011;19251;49.484;8.260;2022-07-23T06:39:29;9.48;;;7.18;;
32894;SDS011;19251;49.484;8.260;2022-07-23T06:44:32;11.40;;;8.48;;
32894;SDS011;19251;49.484;8.260;2022-07-23T06:49:34;8.98;;;7.53;;
32894;SDS011;19251;49.484;8.260;2022-07-23T06:59:39;8.07;;;6.57;;
32894;SDS011;19251;49.484;8.260;2022-07-23T07:04:43;10.38;;;8.40;;
32894;SDS011;19251;49.484;8.260;2022-07-23T07:09:46;10.77;;;8.15;;
32894;SDS011;19251;49.484;8.260;2022-07-23T07:14:49;7.57;;;6.28;;
32894;SDS011;19251;49.484;8.260;2022-07-23T07:19:51;8.93;;;7.50;;
32894;SDS011;19251;49.484;8.260;2022-07-23T07:24:53;9.05;;;6.75;;
32894;SDS011;19251;49.484;8.260;2022-07-23T07:29:56;7.85;;;7.05;;
32894;SDS011;19251;49.484;8.260;2022-07-23T07:34:58;10.02;;;7.50;;
32894;SDS011;19251;49.484;8.260;2022-07-23T07:40:01;9.85;;;7.78;;
32894;SDS011;19251;49.484;8.260;2022-07-23T07:45:03;11.02;;;7.95;;
32894;SDS011;19251;49.484;8.260;2022-07-23T07:50:06;8.02;;;7.22;;
32894;SDS011;19251;49.484;8.260;2022-07-23T07:55:10;9.35;;;7.30;;
32894;SDS011;19251;49.484;8.260;2022-07-23T08:00:13;10.18;;;8.88;;
32894;SDS011;19251;49.484;8.260;2022-07-23T08:05:22;10.00;;;7.93;;
32894;SDS011;19251;49.484;8.260;2022-07-23T08:10:29;11.25;;;7.70;;
32894;SDS011;19251;49.484;8.260;2022-07-23T08:15:32;9.65;;;8.13;;
32894;SDS011;19251;49.484;8.260;2022-07-23T08:20:35;8.15;;;7.35;;
32894;SDS011;19251;49.484;8.260;2022-07-23T08:25:39;9.93;;;7.30;;
32894;SDS011;19251;49.484;8.260;2022-07-23T08:30:43;8.75;;;7.95;;
32894;SDS011;19251;49.484;8.260;2022-07-23T08:35:47;10.80;;;8.23;;
32894;SDS011;19251;49.484;8.260;2022-07-23T08:40:52;14.43;;;8.85;;
32894;SDS011;19251;49.484;8.260;2022-07-23T08:45:59;9.90;;;8.10;;
32894;SDS011;19251;49.484;8.260;2022-07-23T08:51:03;10.80;;;9.10;;
32894;SDS011;19251;49.484;8.260;2022-07-23T08:56:12;7.93;;;7.15;;
32894;SDS011;19251;49.484;8.260;2022-07-23T09:01:14;10.30;;;7.87;;
32894;SDS011;19251;49.484;8.260;2022-07-23T09:06:16;10.95;;;7.00;;
32894;SDS011;19251;49.484;8.260;2022-07-23T09:16:28;12.25;;;8.50;;
32894;SDS011;19251;49.484;8.260;2022-07-23T09:21:38;11.12;;;8.60;;
32894;SDS011;19251;49.484;8.260;2022-07-23T09:26:45;9.40;;;7.72;;
32894;SDS011;19251;49.484;8.260;2022-07-23T09:32:01;10.52;;;7.70;;
32894;SDS011;19251;49.484;8.260;2022-07-23T09:37:10;10.35;;;7.45;;
32894;SDS011;19251;49.484;8.260;2022-07-23T09:42:19;10.55;;;7.50;;
32894;SDS011;19251;49.484;8.260;2022-07-23T09:47:23;9.00;;;7.45;;
32894;SDS011;19251;49.484;8.260;2022-07-23T09:52:28;10.13;;;8.57;;
32894;SDS011;19251;49.484;8.260;2022-07-23T09:57:36;18.17;;;7.15;;
32894;SDS011;19251;49.484;8.260;2022-07-23T10:02:42;9.95;;;8.65;;
32894;SDS011;19251;49.484;8.260;2022-07-23T10:08:05;10.07;;;8.32;;
32894;SDS011;19251;49.484;8.260;2022-07-23T10:13:13;11.65;;;7.00;;
32894;SDS011;19251;49.484;8.260;2022-07-23T10:18:24;7.62;;;5.80;;
32894;SDS011;19251;49.484;8.260;2022-07-23T10:28:51;7.32;;;6.60;;
32894;SDS011;19251;49.484;8.260;2022-07-23T10:34:32;9.50;;;7.25;;
32894;SDS011;19251;49.484;8.260;2022-07-23T10:39:38;13.05;;;8.02;;
32894;SDS011;19251;49.484;8.260;2022-07-23T10:49:47;7.70;;;6.90;;
32894;SDS011;19251;49.484;8.260;2022-07-23T10:54:54;10.45;;;7.57;;
32894;SDS011;19251;49.484;8.260;2022-07-23T11:00:23;13.40;;;7.53;;
32894;SDS011;19251;49.484;8.260;2022-07-23T11:31:50;7.45;;;6.75;;
32894;SDS011;19251;49.484;8.260;2022-07-23T11:37:02;6.40;;;5.80;;
32894;SDS011;19251;49.484;8.260;2022-07-23T11:42:07;7.45;;;6.68;;
32894;SDS011;19251;49.484;8.260;2022-07-23T11:47:10;9.27;;;6.12;;
32894;SDS011;19251;49.484;8.260;2022-07-23T11:52:15;7.12;;;6.32;;
32894;SDS011;19251;49.484;8.260;2022-07-23T11:57:17;9.18;;;7.03;;
32894;SDS011;19251;49.484;8.260;2022-07-23T12:02:24;13.43;;;7.22;;
32894;SDS011;19251;49.484;8.260;2022-07-23T12:07:34;9.20;;;7.65;;
32894;SDS011;19251;49.484;8.260;2022-07-23T12:12:44;10.75;;;7.20;;
32894;SDS011;19251;49.484;8.260;2022-07-23T12:17:52;8.93;;;7.40;;
32894;SDS011;19251;49.484;8.260;2022-07-23T12:23:02;8.15;;;6.75;;
32894;SDS011;19251;49.484;8.260;2022-07-23T12:28:07;11.07;;;7.43;;
32894;SDS011;19251;49.484;8.260;2022-07-23T12:33:21;12.43;;;7.53;;
32894;SDS011;19251;49.484;8.260;2022-07-23T12:38:26;10.85;;;7.85;;
32894;SDS011;19251;49.484;8.260;2022-07-23T12:43:38;9.68;;;6.35;;
32894;SDS011;19251;49.484;8.260;2022-07-23T12:54:06;7.47;;;6.37;;
32894;SDS011;19251;49.484;8.260;2022-07-23T12:59:11;7.35;;;6.43;;
32894;SDS011;19251;49.484;8.260;2022-07-23T13:04:20;7.03;;;6.32;;
32894;SDS011;19251;49.484;8.260;2022-07-23T13:09:24;6.90;;;6.12;;
32894;SDS011;19251;49.484;8.260;2022-07-23T13:14:33;7.32;;;6.50;;
32894;SDS011;19251;49.484;8.260;2022-07-23T13:19:36;7.65;;;6.93;;
32894;SDS011;19251;49.484;8.260;2022-07-23T13:24:39;6.78;;;6.15;;
32894;SDS011;19251;49.484;8.260;2022-07-23T13:29:42;9.48;;;6.37;;
32894;SDS011;19251;49.484;8.260;2022-07-23T13:34:46;7.62;;;5.97;;
32894;SDS011;19251;49.484;8.260;2022-07-23T13:39:51;7.32;;;6.12;;
32894;SDS011;19251;49.484;8.260;2022-07-23T13:44:53;7.47;;;6.25;;
32894;SDS011;19251;49.484;8.260;2022-07-23T13:49:56;10.32;;;7.00;;
32894;SDS011;19251;49.484;8.260;2022-07-23T13:55:01;8.27;;;6.20;;
32894;SDS011;19251;49.484;8.260;2022-07-23T14:00:08;8.15;;;6.43;;
32894;SDS011;19251;49.484;8.260;2022-07-23T14:05:34;6.62;;;5.65;;
32894;SDS011;19251;49.484;8.260;2022-07-23T14:10:36;7.18;;;6.28;;
32894;SDS011;19251;49.484;8.260;2022-07-23T14:15:41;8.32;;;5.45;;
32894;SDS011;19251;49.484;8.260;2022-07-23T14:20:44;10.70;;;6.20;;
32894;SDS011;19251;49.484;8.260;2022-07-23T14:25:46;8.27;;;6.57;;
32894;SDS011;19251;49.484;8.260;2022-07-23T14:30:49;9.45;;;5.62;;
32894;SDS011;19251;49.484;8.260;2022-07-23T14:35:52;7.95;;;5.40;;
32894;SDS011;19251;49.484;8.260;2022-07-23T14:40:55;8.55;;;5.37;;
32894;SDS011;19251;49.484;8.260;2022-07-23T14:45:57;11.25;;;6.57;;
32894;SDS011;19251;49.484;8.260;2022-07-23T14:51:03;7.10;;;5.78;;
32894;SDS011;19251;49.484;8.260;2022-07-23T14:56:13;9.77;;;5.95;;
32894;SDS011;19251;49.484;8.260;2022-07-23T15:01:16;6.45;;;5.00;;
32894;SDS011;19251;49.484;8.260;2022-07-23T15:06:18;9.75;;;5.40;;
32894;SDS011;19251;49.484;8.260;2022-07-23T15:11:21;7.32;;;5.62;;
32894;SDS011;19251;49.484;8.260;2022-07-23T15:16:26;6.10;;;4.97;;
32894;SDS011;19251;49.484;8.260;2022-07-23T15:21:30;10.43;;;5.25;;
32894;SDS011;19251;49.484;8.260;2022-07-23T15:26:32;5.75;;;5.15;;
32894;SDS011;19251;49.484;8.260;2022-07-23T15:31:36;9.88;;;5.35;;
32894;SDS011;19251;49.484;8.260;2022-07-23T15:36:39;5.20;;;4.75;;
32894;SDS011;19251;49.484;8.260;2022-07-23T15:41:42;5.47;;;4.80;;
32894;SDS011;19251;49.484;8.260;2022-07-23T15:46:44;6.53;;;5.25;;
32894;SDS011;19251;49.484;8.260;2022-07-23T15:51:47;7.07;;;5.37;;
32894;SDS011;19251;49.484;8.260;2022-07-23T15:56:49;9.30;;;5.10;;
32894;SDS011;19251;49.484;8.260;2022-07-23T16:01:52;5.62;;;4.75;;
32894;SDS011;19251;49.484;8.260;2022-07-23T16:06:55;11.77;;;4.75;;
32894;SDS011;19251;49.484;8.260;2022-07-23T16:11:58;6.15;;;5.07;;
32894;SDS011;19251;49.484;8.260;2022-07-23T16:17:00;5.45;;;4.82;;
32894;SDS011;19251;49.484;8.260;2022-07-23T16:22:03;9.00;;;4.95;;
32894;SDS011;19251;49.484;8.260;2022-07-23T16:27:06;6.65;;;4.97;;
32894;SDS011;19251;49.484;8.260;2022-07-23T16:32:08;8.43;;;5.80;;
32894;SDS011;19251;49.484;8.260;2022-07-23T16:37:10;10.18;;;5.50;;
32894;SDS011;19251;49.484;8.260;2022-07-23T16:42:13;6.03;;;5.53;;
32894;SDS011;19251;49.484;8.260;2022-07-23T16:47:15;5.43;;;4.93;;
32894;SDS011;19251;49.484;8.260;2022-07-23T16:52:21;6.50;;;5.18;;
32894;SDS011;19251;49.484;8.260;2022-07-23T16:57:23;5.53;;;4.93;;
32894;SDS011;19251;49.484;8.260;2022-07-23T17:02:26;9.60;;;6.15;;
32894;SDS011;19251;49.484;8.260;2022-07-23T17:07:28;6.68;;;4.45;;
32894;SDS011;19251;49.484;8.260;2022-07-23T17:12:31;6.85;;;5.10;;
32894;SDS011;19251;49.484;8.260;2022-07-23T17:17:41;6.70;;;4.55;;
32894;SDS011;19251;49.484;8.260;2022-07-23T17:22:51;6.87;;;5.45;;
32894;SDS011;19251;49.484;8.260;2022-07-23T17:27:59;7.20;;;4.65;;
32894;SDS011;19251;49.484;8.260;2022-07-23T17:33:04;6.25;;;5.43;;
32894;SDS011;19251;49.484;8.260;2022-07-23T17:38:08;10.75;;;6.32;;
32894;SDS011;19251;49.484;8.260;2022-07-23T17:43:19;5.18;;;4.68;;
32894;SDS011;19251;49.484;8.260;2022-07-23T17:48:23;7.70;;;5.97;;
32894;SDS011;19251;49.484;8.260;2022-07-23T17:53:33;5.80;;;5.25;;
32894;SDS011;19251;49.484;8.260;2022-07-23T17:58:36;11.32;;;5.90;;
32894;SDS011;19251;49.484;8.260;2022-07-23T18:03:38;6.43;;;5.82;;
32894;SDS011;19251;49.484;8.260;2022-07-23T18:08:41;6.55;;;5.28;;
32894;SDS011;19251;49.484;8.260;2022-07-23T18:13:43;6.78;;;6.10;;
32894;SDS011;19251;49.484;8.260;2022-07-23T18:18:47;7.90;;;6.15;;
32894;SDS011;19251;49.484;8.260;2022-07-23T18:23:50;6.93;;;5.28;;
32894;SDS011;19251;49.484;8.260;2022-07-23T18:28:52;6.05;;;5.03;;
32894;SDS011;19251;49.484;8.260;2022-07-23T18:33:55;5.75;;;4.80;;
32894;SDS011;19251;49.484;8.260;2022-07-23T18:38:57;7.97;;;5.50;;
32894;SDS011;19251;49.484;8.260;2022-07-23T18:44:04;12.20;;;4.80;;
32894;SDS011;19251;49.484;8.260;2022-07-23T18:49:07;8.68;;;5.62;;
32894;SDS011;19251;49.484;8.260;2022-07-23T18:54:10;7.10;;;5.07;;
32894;SDS011;19251;49.484;8.260;2022-07-23T18:59:14;8.77;;;5.78;;
32894;SDS011;19251;49.484;8.260;2022-07-23T19:04:24;7.25;;;5.55;;
32894;SDS011;19251;49.484;8.260;2022-07-23T19:09:27;6.12;;;5.32;;
32894;SDS011;19251;49.484;8.260;2022-07-23T19:14:34;10.07;;;5.30;;
32894;SDS011;19251;49.484;8.260;2022-07-23T19:19:38;6.78;;;4.68;;
32894;SDS011;19251;49.484;8.260;2022-07-23T19:34:45;10.55;;;5.32;;
32894;SDS011;19251;49.484;8.260;2022-07-23T19:39:48;6.35;;;5.07;;
32894;SDS011;19251;49.484;8.260;2022-07-23T19:49:54;9.13;;;5.60;;
32894;SDS011;19251;49.484;8.260;2022-07-23T19:59:59;7.50;;;4.68;;
32894;SDS011;19251;49.484;8.260;2022-07-23T20:05:05;7.15;;;5.05;;
32894;SDS011;19251;49.484;8.260;2022-07-23T20:10:09;4.93;;;4.43;;
32894;SDS011;19251;49.484;8.260;2022-07-23T20:15:12;10.27;;;4.65;;
32894;SDS011;19251;49.484;8.260;2022-07-23T20:20:15;8.85;;;4.82;;
32894;SDS011;19251;49.484;8.260;2022-07-23T20:25:17;7.30;;;4.60;;
32894;SDS011;19251;49.484;8.260;2022-07-23T20:30:19;4.72;;;4.00;;
32894;SDS011;19251;49.484;8.260;2022-07-23T20:35:22;5.37;;;3.40;;
32894;SDS011;19251;49.484;8.260;2022-07-23T20:40:25;5.80;;;3.87;;
32894;SDS011;19251;49.484;8.260;2022-07-23T20:45:27;3.47;;;3.17;;
32894;SDS011;19251;49.484;8.260;2022-07-23T20:50:30;5.32;;;3.62;;
32894;SDS011;19251;49.484;8.260;2022-07-23T20:55:32;4.53;;;3.10;;
32894;SDS011;19251;49.484;8.260;2022-07-23T21:00:35;8.90;;;3.55;;
32894;SDS011;19251;49.484;8.260;2022-07-23T21:05:37;5.30;;;3.17;;
32894;SDS011;19251;49.484;8.260;2022-07-23T21:10:41;4.85;;;3.22;;
32894;SDS011;19251;49.484;8.260;2022-07-23T21:15:44;5.05;;;3.37;;
32894;SDS011;19251;49.484;8.260;2022-07-23T21:20:46;4.50;;;4.00;;
32894;SDS011;19251;49.484;8.260;2022-07-23T21:26:11;5.72;;;4.95;;
32894;SDS011;19251;49.484;8.260;2022-07-23T21:31:33;7.53;;;4.12;;
32894;SDS011;19251;49.484;8.260;2022-07-23T21:36:36;4.72;;;3.37;;
32894;SDS011;19251;49.484;8.260;2022-07-23T21:41:38;5.60;;;3.15;;
32894;SDS011;19251;49.484;8.260;2022-07-23T21:46:41;4.68;;;4.03;;
32894;SDS011;19251;49.484;8.260;2022-07-23T21:51:44;5.57;;;4.20;;
32894;SDS011;19251;49.484;8.260;2022-07-23T21:56:47;6.37;;;4.07;;
32894;SDS011;19251;49.484;8.260;2022-07-23T22:01:50;5.03;;;3.78;;
32894;SDS011;19251;49.484;8.260;2022-07-23T22:06:52;8.15;;;3.95;;
32894;SDS011;19251;49.484;8.260;2022-07-23T22:11:55;6.43;;;3.83;;
32894;SDS011;19251;49.484;8.260;2022-07-23T22:22:00;8.95;;;3.65;;
32894;SDS011;19251;49.484;8.260;2022-07-23T22:27:02;3.90;;;3.30;;
32894;SDS011;19251;49.484;8.260;2022-07-23T22:32:05;6.70;;;3.20;;
32894;SDS011;19251;49.484;8.260;2022-07-23T22:37:07;4.10;;;3.70;;
32894;SDS011;19251;49.484;8.260;2022-07-23T22:42:09;4.40;;;3.47;;
32894;SDS011;19251;49.484;8.260;2022-07-23T22:52:14;9.77;;;3.83;;
32894;SDS011;19251;49.484;8.260;2022-07-23T23:02:19;4.45;;;3.30;;
32894;SDS011;19251;49.484;8.260;2022-07-23T23:07:21;4.70;;;3.10;;
32894;SDS011;19251;49.484;8.260;2022-07-23T23:12:24;4.78;;;3.12;;
32894;SDS011;19251;49.484;8.260;2022-07-23T23:17:26;6.05;;;4.15;;
32894;SDS011;19251;49.484;8.260;2022-07-23T23:22:29;3.87;;;3.17;;
32894;SDS011;19251;49.484;8.260;2022-07-23T23:27:31;4.43;;;3.40;;
32894;SDS011;19251;49.484;8.260;2022-07-23T23:32:33;7.75;;;3.83;;
32894;SDS011;19251;49.484;8.260;2022-07-23T23:37:36;4.28;;;3.72;;
32894;SDS011;19251;49.484;8.260;2022-07-23T23:42:40;4.82;;;3.60;;
32894;SDS011;19251;49.484;8.260;2022-07-23T23:52:44;6.95;;;3.75;;
32894;SDS011;19251;49.484;8.260;2022-07-23T23:57:47;4.12;;;3.30;;
